createdAt,value
2023-03-11T00:00:34.005Z,0.82
2023-03-11T00:05:40.563Z,0.93
2023-03-11T00:10:44.015Z,0.80
2023-03-11T00:15:48.616Z,0.88
2023-03-11T00:20:50.155Z,0.80
2023-03-11T00:25:52.173Z,0.93
2023-03-11T00:30:53.854Z,0.85
2023-03-11T00:35:55.539Z,0.80
2023-03-11T00:40:57.137Z,0.60
2023-03-11T00:45:58.663Z,0.60
2023-03-11T00:51:00.221Z,0.70
2023-03-11T00:56:09.947Z,0.60
2023-03-11T01:01:16.192Z,0.70
2023-03-11T01:06:17.878Z,0.60
2023-03-11T01:11:20.698Z,0.68
2023-03-11T01:16:22.530Z,0.63
2023-03-11T01:21:24.256Z,0.60
2023-03-11T01:26:25.782Z,0.70
2023-03-11T01:31:30.603Z,0.70
2023-03-11T01:36:32.459Z,0.70
2023-03-11T01:41:33.960Z,0.73
2023-03-11T01:46:59.678Z,0.68
2023-03-11T01:52:07.976Z,0.63
2023-03-11T01:57:16.314Z,0.77
2023-03-11T02:02:41.986Z,0.70
2023-03-11T02:07:44.145Z,0.65
2023-03-11T02:12:50.721Z,0.70
2023-03-11T02:18:05.155Z,0.90
2023-03-11T02:23:07.386Z,1.00
2023-03-11T02:28:12.596Z,1.45
2023-03-11T02:33:15.670Z,4.38
2023-03-11T02:38:20.434Z,0.65
2023-03-11T02:43:27.800Z,1.10
2023-03-11T02:48:30.921Z,0.80
2023-03-11T02:53:37.976Z,1.13
2023-03-11T02:58:40.525Z,1.00
2023-03-11T03:03:44.150Z,1.23
2023-03-11T03:08:46.601Z,1.13
2023-03-11T03:13:48.115Z,1.00
2023-03-11T03:18:51.509Z,0.90
2023-03-11T03:23:53.665Z,0.70
2023-03-11T03:28:55.349Z,0.95
2023-03-11T03:33:57.049Z,1.10
2023-03-11T03:38:59.674Z,1.25
2023-03-11T03:44:05.814Z,0.90
2023-03-11T03:49:09.437Z,1.10
2023-03-11T03:54:11.169Z,0.88
2023-03-11T03:59:13.149Z,0.90
2023-03-11T04:04:20.310Z,0.95
2023-03-11T04:09:22.335Z,1.02
2023-03-11T04:14:24.247Z,1.00
2023-03-11T04:19:30.165Z,0.90
2023-03-11T04:24:32.724Z,1.00
2023-03-11T04:29:34.519Z,1.00
2023-03-11T04:34:37.059Z,0.98
2023-03-11T04:39:38.932Z,0.85
2023-03-11T04:44:40.986Z,0.68
2023-03-11T04:49:42.619Z,0.90
2023-03-11T04:54:46.535Z,0.98
2023-03-11T04:59:48.198Z,0.82
2023-03-11T05:04:50.426Z,0.93
2023-03-11T05:09:52.129Z,0.80
2023-03-11T05:14:53.978Z,0.73
2023-03-11T05:19:56.278Z,0.88
2023-03-11T05:25:02.945Z,0.70
2023-03-11T05:30:05.695Z,0.70
2023-03-11T05:35:09.984Z,1.00
2023-03-11T05:40:12.470Z,0.98
2023-03-11T05:45:14.650Z,0.60
2023-03-11T05:50:18.741Z,0.80
2023-03-11T05:55:22.286Z,0.70
2023-03-11T06:00:24.353Z,0.70
2023-03-11T06:05:28.159Z,0.60
2023-03-11T06:10:31.264Z,0.77
2023-03-11T06:15:37.422Z,0.90
2023-03-11T06:20:39.713Z,1.50
2023-03-11T06:25:41.357Z,2.97
2023-03-11T06:30:44.190Z,3.13
2023-03-11T06:35:59.149Z,1.45
2023-03-11T06:41:03.755Z,0.82
2023-03-11T06:46:16.551Z,0.90
2023-03-11T06:51:20.507Z,1.00
2023-03-11T06:56:23.336Z,1.15
2023-03-11T07:01:30.715Z,1.02
2023-03-11T07:06:34.352Z,1.58
2023-03-11T07:11:53.281Z,1.20
2023-03-11T07:17:01.958Z,0.90
2023-03-11T07:22:15.840Z,1.10
2023-03-11T07:27:17.722Z,0.98
2023-03-11T07:32:19.427Z,1.00
2023-03-11T07:37:20.961Z,1.15
2023-03-11T07:42:22.500Z,1.13
2023-03-11T07:47:24.730Z,1.67
2023-03-11T07:52:31.000Z,1.00
2023-03-11T07:57:32.521Z,2.00
2023-03-11T08:02:34.196Z,1.10
2023-03-11T08:07:35.730Z,1.25
2023-03-11T08:12:37.289Z,0.88
2023-03-11T08:17:38.844Z,1.00
2023-03-11T08:22:55.466Z,1.40
2023-03-11T08:27:59.155Z,1.52
2023-03-11T08:33:01.394Z,1.10
2023-03-11T08:38:03.021Z,1.23
2023-03-11T08:43:04.633Z,1.35
2023-03-11T08:48:06.580Z,1.52
2023-03-11T08:53:08.824Z,1.05
2023-03-11T08:58:10.364Z,1.52
2023-03-11T09:03:12.240Z,1.40
2023-03-11T09:08:13.798Z,1.23
2023-03-11T09:13:15.351Z,1.33
2023-03-11T09:18:17.828Z,1.23
2023-03-11T09:23:19.330Z,1.00
2023-03-11T09:28:20.968Z,1.05
2023-03-11T09:33:22.556Z,1.17
2023-03-11T09:38:24.521Z,0.93
2023-03-11T09:43:44.616Z,0.60
2023-03-11T09:49:21.464Z,0.80
2023-03-11T09:54:24.017Z,0.80
2023-03-11T09:59:33.255Z,1.10
2023-03-11T10:04:54.716Z,0.85
2023-03-11T10:09:58.938Z,1.10
2023-03-11T10:15:14.853Z,0.70
2023-03-11T10:20:30.656Z,0.80
2023-03-11T10:25:42.645Z,1.02
2023-03-11T10:30:50.227Z,1.00
2023-03-11T10:35:54.576Z,1.20
2023-03-11T10:41:00.202Z,1.40
2023-03-11T10:46:14.308Z,1.00
2023-03-11T10:51:26.663Z,1.58
2023-03-11T10:56:40.154Z,1.45
2023-03-11T11:01:57.976Z,1.85
2023-03-11T11:07:28.380Z,1.00
2023-03-11T11:12:29.907Z,0.82
2023-03-11T11:17:33.901Z,0.93
2023-03-11T11:22:35.506Z,2.50
2023-03-11T11:27:37.154Z,1.77
2023-03-11T11:32:38.869Z,1.30
2023-03-11T11:38:02.306Z,1.10
2023-03-11T11:43:07.302Z,1.10
2023-03-11T11:48:24.185Z,0.90
2023-03-11T11:53:34.919Z,0.85
2023-03-11T11:58:36.521Z,0.80
2023-03-11T12:04:17.232Z,1.20
2023-03-11T12:09:33.210Z,0.90
2023-03-11T12:14:53.157Z,1.17
2023-03-11T12:20:00.778Z,1.23
2023-03-11T12:25:28.462Z,1.50
2023-03-11T12:30:33.308Z,1.00
2023-03-11T12:35:36.047Z,1.25
2023-03-11T12:40:50.039Z,1.30
2023-03-11T12:45:53.340Z,1.08
2023-03-11T12:50:55.491Z,1.33
2023-03-11T12:56:39.672Z,6.40
2023-03-11T13:01:44.446Z,1.20
2023-03-11T13:07:08.156Z,1.10
2023-03-11T13:12:46.194Z,1.20
2023-03-11T13:18:24.822Z,1.77
2023-03-11T13:23:38.260Z,1.80
2023-03-11T13:28:58.419Z,1.70
2023-03-11T13:34:14.536Z,1.73
2023-03-11T13:39:31.484Z,1.60
2023-03-11T13:44:39.768Z,1.60
2023-03-11T13:54:48.899Z,1.23
2023-03-11T13:59:55.748Z,1.00
2023-03-11T14:05:05.444Z,1.60
2023-03-11T14:10:28.704Z,1.60
2023-03-11T14:15:43.747Z,1.52
2023-03-11T14:20:48.373Z,1.50
2023-03-11T14:25:58.500Z,1.40
2023-03-11T14:31:01.805Z,1.20
2023-03-11T14:36:09.897Z,1.40
2023-03-11T14:46:21.928Z,1.52
2023-03-11T14:51:31.372Z,1.98
2023-03-11T14:56:37.119Z,1.65
2023-03-11T15:01:41.059Z,1.65
2023-03-11T15:06:43.903Z,1.65
2023-03-11T15:12:01.013Z,1.30
2023-03-11T15:17:37.422Z,1.60
2023-03-11T15:22:42.675Z,1.60
2023-03-11T15:27:44.272Z,1.88
2023-03-11T15:32:46.307Z,1.40
2023-03-11T15:37:49.567Z,1.55
2023-03-11T15:43:27.646Z,1.38
2023-03-11T15:48:29.998Z,1.63
2023-03-11T15:53:31.697Z,1.80
2023-03-11T15:58:33.246Z,1.85
2023-03-11T16:03:34.834Z,1.60
2023-03-11T16:08:36.300Z,1.98
2023-03-11T16:13:38.167Z,2.15
2023-03-11T16:18:39.734Z,1.70
2023-03-11T16:23:51.140Z,1.95
2023-03-11T16:28:53.666Z,2.30
2023-03-11T16:33:55.152Z,2.20
2023-03-11T16:38:56.762Z,2.13
2023-03-11T16:43:58.522Z,2.20
2023-03-11T16:49:00.147Z,1.80
2023-03-11T16:54:01.846Z,1.92
2023-03-11T16:59:04.279Z,2.03
2023-03-11T17:04:07.190Z,1.60
2023-03-11T17:09:09.043Z,2.00
2023-03-11T17:14:16.562Z,1.95
2023-03-11T17:19:18.656Z,2.00
2023-03-11T17:24:20.163Z,3.13
2023-03-11T17:29:21.827Z,2.00
2023-03-11T17:34:23.532Z,1.80
2023-03-11T17:39:25.173Z,2.42
2023-03-11T17:44:26.846Z,1.40
2023-03-11T17:49:28.581Z,1.70
2023-03-11T17:54:30.062Z,1.50
2023-03-11T17:59:31.676Z,1.67
2023-03-11T18:04:33.168Z,1.92
2023-03-11T18:09:34.684Z,2.42
2023-03-11T18:14:36.918Z,2.72
2023-03-11T18:19:38.768Z,1.85
2023-03-11T18:24:40.278Z,1.80
2023-03-11T18:29:42.076Z,1.90
2023-03-11T18:34:43.978Z,1.83
2023-03-11T18:39:45.524Z,1.85
2023-03-11T18:44:47.169Z,1.75
2023-03-11T18:49:48.984Z,1.50
2023-03-11T18:54:50.552Z,1.75
2023-03-11T18:59:52.409Z,1.80
2023-03-11T19:04:54.166Z,1.63
2023-03-11T19:09:55.750Z,1.60
2023-03-11T19:14:57.412Z,1.38
2023-03-11T19:19:59.034Z,1.92
2023-03-11T19:25:00.690Z,1.80
2023-03-11T19:30:02.396Z,1.42
2023-03-11T19:35:04.238Z,1.63
2023-03-11T19:40:06.733Z,1.63
2023-03-11T19:45:08.791Z,1.83
2023-03-11T19:50:11.016Z,1.98
2023-03-11T19:55:12.617Z,1.63
2023-03-11T20:00:14.572Z,1.60
2023-03-11T20:05:16.268Z,1.92
2023-03-11T20:10:17.961Z,1.90
2023-03-11T20:15:19.633Z,1.63
2023-03-11T20:20:21.790Z,2.05
2023-03-11T20:25:24.908Z,2.58
2023-03-11T20:30:27.797Z,2.42
2023-03-11T20:35:29.390Z,2.10
2023-03-11T20:40:30.954Z,2.60
2023-03-11T20:45:32.666Z,2.20
2023-03-11T20:50:34.589Z,2.80
2023-03-11T20:55:40.755Z,2.63
2023-03-11T21:00:42.388Z,2.00
2023-03-11T21:05:45.596Z,2.25
2023-03-11T21:10:47.104Z,2.70
2023-03-11T21:15:48.762Z,2.90
2023-03-11T21:20:50.730Z,2.67
2023-03-11T21:26:02.859Z,4.03
2023-03-11T21:31:11.226Z,3.53
2023-03-11T21:36:14.741Z,3.53
2023-03-11T21:41:25.496Z,4.18
2023-03-11T21:46:30.514Z,4.97
2023-03-11T21:51:32.253Z,4.07
2023-03-11T21:56:33.801Z,3.88
2023-03-11T22:01:35.505Z,4.63
2023-03-11T22:06:37.413Z,4.95
2023-03-11T22:11:39.016Z,4.70
2023-03-11T22:16:40.723Z,5.13
2023-03-11T22:21:43.122Z,5.95
2023-03-11T22:26:44.782Z,5.00
2023-03-11T22:31:46.425Z,5.63
2023-03-11T22:36:48.011Z,6.15
2023-03-11T22:41:49.516Z,6.13
2023-03-11T22:46:51.086Z,6.13
2023-03-11T22:51:52.899Z,5.28
2023-03-11T22:56:54.503Z,5.28
2023-03-11T23:01:56.587Z,4.85
2023-03-11T23:06:58.319Z,4.88
2023-03-11T23:12:03.573Z,4.50
2023-03-11T23:17:05.267Z,3.80
2023-03-11T23:22:07.034Z,4.70
2023-03-11T23:27:08.575Z,3.58
2023-03-11T23:32:11.236Z,4.35
2023-03-11T23:37:13.025Z,4.47
2023-03-11T23:42:24.886Z,5.40
2023-03-11T23:47:27.877Z,4.65
2023-03-11T23:52:29.568Z,4.75
2023-03-11T23:57:31.178Z,4.75
